Karamay, China
Current Conditions -  °F | °C
As of 2:00 AM on Saturday 22 Nov 2014 (Local Time) from ZWWW Reporting Station
Smoke Smoke  
Wind Chill: 27°   Ceiling: Unl
Heat Index: 27°   Visibility: 1.2mi
Dew Point: 23°   Wind: 2mph
Humidity: 86%   Direction: NA
Pressure: 30.3"   Gusts: NA
Location:  45.6°N, 84.86°E
Report Text: ZWWW 211800Z VRB01MPS 2000 FU NSC M03/M05 Q1026 NOSIG
Loading
Personal Weather Stations






























Interactive Weather Map New forecast layout! Learn more

10-Day Weather Forecast

Advertisements
Track Severe Weather on mobile